createdAt,value
2019-05-14T00:02:04.424Z,7.50
2019-05-14T00:04:31.562Z,7.50
2019-05-14T00:06:57.918Z,7.50
2019-05-14T00:09:24.144Z,7.40
2019-05-14T00:11:51.236Z,7.40
2019-05-14T00:14:17.621Z,7.40
2019-05-14T00:16:43.855Z,7.50
2019-05-14T00:19:11.194Z,7.40
2019-05-14T00:21:37.588Z,7.40
2019-05-14T00:24:03.825Z,7.40
2019-05-14T00:26:31.854Z,7.40
2019-05-14T00:28:58.213Z,7.40
2019-05-14T00:31:24.463Z,7.40
2019-05-14T00:33:51.264Z,7.30
2019-05-14T00:36:17.758Z,7.30
2019-05-14T00:38:44.022Z,7.30
2019-05-14T00:41:11.143Z,7.20
2019-05-14T00:43:37.557Z,7.20
2019-05-14T00:46:03.787Z,7.20
2019-05-14T00:48:31.787Z,7.20
2019-05-14T00:51:02.248Z,7.10
2019-05-14T00:53:28.308Z,7.10
2019-05-14T00:55:54.600Z,7.10
2019-05-14T00:58:21.781Z,7.00
2019-05-14T01:00:48.227Z,6.90
2019-05-14T01:03:14.468Z,6.90
2019-05-14T01:05:41.408Z,6.80
2019-05-14T01:08:07.801Z,6.70
2019-05-14T01:10:34.032Z,6.60
2019-05-14T01:13:01.259Z,6.60
2019-05-14T01:15:32.044Z,6.50
2019-05-14T01:18:01.921Z,6.40
2019-05-14T01:20:28.135Z,6.30
2019-05-14T01:22:55.491Z,6.30
2019-05-14T01:25:23.551Z,6.20
2019-05-14T01:27:51.830Z,6.20
2019-05-14T01:30:18.214Z,6.20
2019-05-14T01:32:44.435Z,6.20
2019-05-14T01:35:12.102Z,6.20
2019-05-14T01:37:38.754Z,6.20
2019-05-14T01:40:06.709Z,6.20
2019-05-14T01:42:32.932Z,6.20
2019-05-14T01:44:59.519Z,6.20
2019-05-14T01:47:26.366Z,6.20
2019-05-14T01:49:52.630Z,6.30
2019-05-14T01:52:18.861Z,6.10
2019-05-14T01:54:53.592Z,6.20
2019-05-14T01:57:22.117Z,6.10
2019-05-14T01:59:48.437Z,6.10
2019-05-14T02:02:22.022Z,6.20
2019-05-14T02:04:51.131Z,6.20
2019-05-14T02:07:17.038Z,6.20
2019-05-14T02:09:43.273Z,6.20
2019-05-14T02:12:11.572Z,6.20
2019-05-14T02:14:45.971Z,6.20
2019-05-14T02:17:13.611Z,6.20
2019-05-14T02:19:42.310Z,6.20
2019-05-14T02:22:14.893Z,6.20
2019-05-14T02:24:41.930Z,6.20
2019-05-14T02:27:08.662Z,6.20
2019-05-14T02:29:44.595Z,6.30
2019-05-14T02:32:11.330Z,6.30
2019-05-14T02:34:39.800Z,6.30
2019-05-14T02:37:08.975Z,6.20
2019-05-14T02:39:33.920Z,6.20
2019-05-14T02:42:00.538Z,6.20
2019-05-14T02:44:29.924Z,6.20
2019-05-14T02:46:59.256Z,6.10
2019-05-14T02:49:24.769Z,6.10
2019-05-14T02:51:50.982Z,6.10
2019-05-14T02:54:20.111Z,6.10
2019-05-14T02:56:45.369Z,6.00
2019-05-14T02:59:11.633Z,6.00
2019-05-14T03:01:50.559Z,6.00
2019-05-14T03:04:19.820Z,5.90
2019-05-14T03:06:46.201Z,5.90
2019-05-14T03:09:12.521Z,5.90
2019-05-14T03:11:40.350Z,5.90
2019-05-14T03:14:09.066Z,5.80
2019-05-14T03:16:36.161Z,5.80
2019-05-14T03:19:05.245Z,5.80
2019-05-14T03:21:31.500Z,5.80
2019-05-14T03:24:00.913Z,5.80
2019-05-14T03:26:29.334Z,5.80
2019-05-14T03:28:59.782Z,5.80
2019-05-14T03:31:24.577Z,5.80
2019-05-14T03:33:52.953Z,5.80
2019-05-14T03:36:25.706Z,5.90
2019-05-14T03:38:54.647Z,5.90
2019-05-14T03:41:21.008Z,5.90
2019-05-14T03:43:49.337Z,6.00
2019-05-14T03:46:15.565Z,6.00
2019-05-14T03:48:49.452Z,6.00
2019-05-14T03:51:15.972Z,6.10
2019-05-14T03:53:56.895Z,6.10
2019-05-14T03:56:11.078Z,6.10
2019-05-14T03:58:39.286Z,6.20
2019-05-14T04:01:09.702Z,6.20
2019-05-14T04:03:35.958Z,6.20
2019-05-14T04:06:02.882Z,6.30
2019-05-14T04:08:39.199Z,6.30
2019-05-14T04:11:13.050Z,6.30
2019-05-14T04:13:41.888Z,6.30
2019-05-14T04:16:20.262Z,6.40
2019-05-14T04:18:51.118Z,6.40
2019-05-14T04:21:20.514Z,6.40
2019-05-14T04:23:50.804Z,6.40
2019-05-14T04:26:20.770Z,6.50
2019-05-14T04:28:50.556Z,6.60
2019-05-14T04:31:19.359Z,6.90
2019-05-14T04:33:49.941Z,7.20
2019-05-14T04:36:20.598Z,7.60
2019-05-14T04:39:09.500Z,7.80
2019-05-14T04:41:39.122Z,8.00
2019-05-14T04:44:04.536Z,8.10
2019-05-14T04:46:39.531Z,8.20
2019-05-14T04:49:05.073Z,8.30
2019-05-14T04:51:35.135Z,8.40
2019-05-14T04:54:02.075Z,8.50
2019-05-14T04:56:30.196Z,8.60
2019-05-14T04:58:59.615Z,8.70
2019-05-14T05:01:32.351Z,8.90
2019-05-14T05:03:59.365Z,9.20
2019-05-14T05:06:28.849Z,9.50
2019-05-14T05:08:53.887Z,9.90
2019-05-14T05:11:21.293Z,10.30
2019-05-14T05:13:48.782Z,10.90
2019-05-14T05:16:21.086Z,11.40
2019-05-14T05:18:48.989Z,12.00
2019-05-14T05:21:15.487Z,12.70
2019-05-14T05:23:41.707Z,13.60
2019-05-14T05:26:09.223Z,14.40
2019-05-14T05:28:35.733Z,15.20
2019-05-14T05:31:03.960Z,15.90
2019-05-14T05:33:30.512Z,16.20
2019-05-14T05:35:59.265Z,16.70
2019-05-14T05:38:25.198Z,17.20
2019-05-14T05:40:51.480Z,17.30
2019-05-14T05:43:19.142Z,17.50
2019-05-14T05:45:59.363Z,17.70
2019-05-14T05:48:28.511Z,17.90
2019-05-14T05:51:02.294Z,18.30
2019-05-14T05:53:48.608Z,18.50
2019-05-14T05:56:18.438Z,18.80
2019-05-14T05:58:44.303Z,19.30
2019-05-14T06:01:11.605Z,19.70
2019-05-14T06:03:39.289Z,19.80
2019-05-14T06:06:13.276Z,19.50
2019-05-14T06:08:34.249Z,19.30
2019-05-14T06:11:00.462Z,18.90
2019-05-14T06:13:28.737Z,19.00
2019-05-14T06:16:05.320Z,18.90
2019-05-14T06:18:34.670Z,18.80
2019-05-14T06:21:00.898Z,18.80
2019-05-14T06:23:28.524Z,19.00
2019-05-14T06:25:54.994Z,19.10
2019-05-14T06:28:21.280Z,19.00
2019-05-14T06:30:49.924Z,19.10
2019-05-14T06:33:16.309Z,19.20
2019-05-14T06:35:42.552Z,19.30
2019-05-14T06:38:09.027Z,19.10
2019-05-14T06:40:35.509Z,19.10
2019-05-14T06:43:01.760Z,19.10
2019-05-14T06:45:29.231Z,19.00
2019-05-14T06:47:55.650Z,19.00
2019-05-14T06:50:22.032Z,19.00
2019-05-14T06:52:49.202Z,19.10
2019-05-14T06:55:17.903Z,19.30
2019-05-14T06:57:44.235Z,19.40
2019-05-14T07:00:11.238Z,19.20
2019-05-14T07:02:43.342Z,19.30
2019-05-14T07:05:08.338Z,19.40
2019-05-14T07:07:34.984Z,19.50
2019-05-14T07:10:04.268Z,19.40
2019-05-14T07:12:30.544Z,19.20
2019-05-14T07:14:58.565Z,19.40
2019-05-14T07:17:24.954Z,19.50
2019-05-14T07:19:51.216Z,19.80
2019-05-14T07:22:19.558Z,19.50
2019-05-14T07:24:45.743Z,19.40
2019-05-14T07:27:11.982Z,19.50
2019-05-14T07:29:38.937Z,19.50
2019-05-14T07:32:05.554Z,19.30
2019-05-14T07:34:31.835Z,19.20
2019-05-14T07:36:58.727Z,19.20
2019-05-14T07:39:25.138Z,19.20
2019-05-14T07:41:51.470Z,19.10
2019-05-14T07:44:18.263Z,19.10
2019-05-14T07:46:44.771Z,18.50
2019-05-14T07:49:11.974Z,18.10
2019-05-14T07:51:38.855Z,17.90
2019-05-14T07:54:05.257Z,17.70
2019-05-14T07:56:31.553Z,17.70
2019-05-14T07:59:08.969Z,17.80
2019-05-14T08:01:38.659Z,18.20
2019-05-14T08:04:05.456Z,18.50
2019-05-14T08:06:31.743Z,18.60
2019-05-14T08:08:59.214Z,18.40
2019-05-14T08:11:27.928Z,18.30
2019-05-14T08:13:53.713Z,18.30
2019-05-14T08:16:19.990Z,18.20
2019-05-14T08:18:48.481Z,18.20
2019-05-14T08:21:14.355Z,18.20
2019-05-14T08:23:40.596Z,18.10
2019-05-14T08:26:07.946Z,17.80
2019-05-14T08:28:34.369Z,17.60
2019-05-14T08:31:00.585Z,17.70
2019-05-14T08:33:28.987Z,17.80
2019-05-14T08:35:55.140Z,17.60
2019-05-14T08:38:21.386Z,17.40
2019-05-14T08:40:48.950Z,17.10
2019-05-14T08:43:15.494Z,16.80
2019-05-14T08:45:41.746Z,16.40
2019-05-14T08:48:20.028Z,16.10
2019-05-14T08:50:54.722Z,15.70
2019-05-14T08:53:39.606Z,15.20
2019-05-14T08:56:15.592Z,14.70
2019-05-14T08:58:58.924Z,14.10
2019-05-14T09:01:32.499Z,13.70
2019-05-14T09:04:21.666Z,13.20
2019-05-14T09:06:48.887Z,12.90
2019-05-14T09:09:15.275Z,12.40
2019-05-14T09:11:45.530Z,11.90
2019-05-14T09:14:11.245Z,11.50
2019-05-14T09:16:46.271Z,11.20
2019-05-14T09:19:06.041Z,11.00
2019-05-14T09:21:32.306Z,10.90
2019-05-14T09:23:58.865Z,10.80
2019-05-14T09:26:25.165Z,10.80
2019-05-14T09:28:51.371Z,11.20
2019-05-14T09:31:19.670Z,11.80
2019-05-14T09:33:49.418Z,12.10
2019-05-14T09:36:22.644Z,12.20
2019-05-14T09:38:44.663Z,12.30
2019-05-14T09:41:15.199Z,12.50
2019-05-14T09:43:39.440Z,12.80
2019-05-14T09:46:05.714Z,13.10
2019-05-14T09:48:32.026Z,13.30
2019-05-14T09:50:58.717Z,13.70
2019-05-14T09:53:24.996Z,14.10
2019-05-14T09:55:51.246Z,14.40
2019-05-14T09:58:19.938Z,14.70
2019-05-14T10:00:48.330Z,14.90
2019-05-14T10:03:14.319Z,15.00
2019-05-14T10:05:40.716Z,15.10
2019-05-14T10:08:08.973Z,15.10
2019-05-14T10:10:35.230Z,15.30
2019-05-14T10:13:01.952Z,15.40
2019-05-14T10:15:28.718Z,15.50
2019-05-14T10:17:55.118Z,15.70
2019-05-14T10:20:36.414Z,15.70
2019-05-14T10:22:49.594Z,15.90
2019-05-14T10:25:28.762Z,16.00
2019-05-14T10:27:55.064Z,16.00
2019-05-14T10:30:21.806Z,16.00
2019-05-14T10:32:49.213Z,15.90
2019-05-14T10:35:15.872Z,15.70
2019-05-14T10:37:42.199Z,15.50
2019-05-14T10:40:10.390Z,15.60
2019-05-14T10:42:39.994Z,15.60
2019-05-14T10:45:12.486Z,15.60
2019-05-14T10:47:35.511Z,15.60
2019-05-14T10:50:04.075Z,15.60
2019-05-14T10:52:30.340Z,15.50
2019-05-14T10:54:59.030Z,15.40
2019-05-14T10:57:24.679Z,15.50
2019-05-14T10:59:50.929Z,15.40
2019-05-14T11:02:18.594Z,15.40
2019-05-14T11:04:45.000Z,15.00
2019-05-14T11:07:11.264Z,14.90
2019-05-14T11:09:38.064Z,14.50
2019-05-14T11:12:04.656Z,14.10
2019-05-14T11:14:31.942Z,13.80
2019-05-14T11:16:59.188Z,13.40
2019-05-14T11:19:28.027Z,13.00
2019-05-14T11:21:53.845Z,12.90
2019-05-14T11:24:20.204Z,13.00
2019-05-14T11:26:48.854Z,12.80
2019-05-14T11:29:14.821Z,12.70
2019-05-14T11:31:41.039Z,12.80
2019-05-14T11:34:08.330Z,12.90
2019-05-14T11:36:34.638Z,13.00
2019-05-14T11:39:04.036Z,13.00
2019-05-14T11:41:29.092Z,13.10
2019-05-14T11:43:55.323Z,13.10
2019-05-14T11:46:33.807Z,13.10
2019-05-14T11:48:49.741Z,13.10
2019-05-14T11:51:15.978Z,13.10
2019-05-14T11:53:42.213Z,13.10
2019-05-14T11:56:08.883Z,13.10
2019-05-14T11:58:35.792Z,13.30
2019-05-14T12:01:02.220Z,13.30
2019-05-14T12:03:28.711Z,13.50
2019-05-14T12:05:55.078Z,13.60
2019-05-14T12:08:21.346Z,13.80
2019-05-14T12:10:47.599Z,13.90
2019-05-14T12:13:13.963Z,14.00
2019-05-14T12:15:40.209Z,13.90
2019-05-14T12:18:10.455Z,13.60
2019-05-14T12:20:39.555Z,13.50
2019-05-14T12:23:04.704Z,13.30
2019-05-14T12:25:31.526Z,13.00
2019-05-14T12:27:58.992Z,12.80
2019-05-14T12:30:25.651Z,12.60
2019-05-14T12:32:51.896Z,12.60
2019-05-14T12:35:19.838Z,12.60
2019-05-14T12:37:46.272Z,12.50
2019-05-14T12:40:12.942Z,12.50
2019-05-14T12:42:39.664Z,12.60
2019-05-14T12:45:09.666Z,12.60
2019-05-14T12:47:38.330Z,12.70
2019-05-14T12:50:09.139Z,12.60
2019-05-14T12:52:35.232Z,12.60
2019-05-14T12:55:03.518Z,12.70
2019-05-14T12:57:30.145Z,12.70
2019-05-14T13:00:05.581Z,12.80
2019-05-14T13:02:31.801Z,12.80
2019-05-14T13:05:00.159Z,12.90
2019-05-14T13:07:26.346Z,13.00
2019-05-14T13:09:52.576Z,13.00
2019-05-14T13:12:19.083Z,12.70
2019-05-14T13:14:45.323Z,12.60
2019-05-14T13:17:11.643Z,12.40
2019-05-14T13:19:38.096Z,12.30
2019-05-14T13:22:13.071Z,12.20
2019-05-14T13:24:32.570Z,12.10
2019-05-14T13:26:58.990Z,12.10
2019-05-14T13:29:25.235Z,12.10
2019-05-14T13:31:51.476Z,12.20
2019-05-14T13:34:19.500Z,12.30
2019-05-14T13:36:48.684Z,12.20
2019-05-14T13:39:14.059Z,12.20
2019-05-14T13:41:41.872Z,12.10
2019-05-14T13:44:18.685Z,12.10
2019-05-14T13:46:38.598Z,12.20
2019-05-14T13:49:04.936Z,12.30
2019-05-14T13:51:33.590Z,12.30
2019-05-14T13:53:59.302Z,12.40
2019-05-14T13:56:28.194Z,12.50
2019-05-14T13:58:54.120Z,12.50
2019-05-14T14:01:20.361Z,12.50
2019-05-14T14:04:01.221Z,12.40
2019-05-14T14:06:14.992Z,12.20
2019-05-14T14:08:42.444Z,12.00
2019-05-14T14:11:12.798Z,11.90
2019-05-14T14:13:39.208Z,11.80
2019-05-14T14:16:05.936Z,11.70
2019-05-14T14:18:32.419Z,11.60
2019-05-14T14:20:58.649Z,11.60
2019-05-14T14:23:30.121Z,11.50
2019-05-14T14:25:55.453Z,11.40
2019-05-14T14:28:21.197Z,11.40
2019-05-14T14:30:49.200Z,11.40
2019-05-14T14:33:18.317Z,11.40
2019-05-14T14:35:43.899Z,11.50
2019-05-14T14:38:10.874Z,11.50
2019-05-14T14:40:39.522Z,11.50
2019-05-14T14:43:05.779Z,11.60
2019-05-14T14:45:32.429Z,11.70
2019-05-14T14:48:01.311Z,11.80
2019-05-14T14:50:28.907Z,11.90
2019-05-14T14:52:55.444Z,12.00
2019-05-14T14:55:21.826Z,12.00
2019-05-14T14:57:53.888Z,12.00
2019-05-14T15:00:19.189Z,12.00
2019-05-14T15:02:44.934Z,12.00
2019-05-14T15:05:14.223Z,12.00
2019-05-14T15:07:40.992Z,12.00
2019-05-14T15:10:08.776Z,12.10
2019-05-14T15:12:39.055Z,12.10
2019-05-14T15:15:04.683Z,12.10
2019-05-14T15:17:30.981Z,12.10
2019-05-14T15:19:59.635Z,12.10
2019-05-14T15:22:30.448Z,12.10
2019-05-14T15:24:54.302Z,12.00
2019-05-14T15:27:21.043Z,11.60
2019-05-14T15:29:48.857Z,11.20
2019-05-14T15:32:15.417Z,10.80
2019-05-14T15:34:41.885Z,10.50
2019-05-14T15:37:08.934Z,10.30
2019-05-14T15:39:35.639Z,10.20
2019-05-14T15:42:05.094Z,10.20
2019-05-14T15:44:47.581Z,10.10
2019-05-14T15:46:58.815Z,10.10
2019-05-14T15:49:25.074Z,10.10
2019-05-14T15:51:52.117Z,10.10
2019-05-14T15:54:36.195Z,10.00
2019-05-14T15:56:49.180Z,10.00
2019-05-14T15:59:15.204Z,10.10
2019-05-14T16:01:41.637Z,10.10
2019-05-14T16:04:11.178Z,10.10
2019-05-14T16:06:38.458Z,10.20
2019-05-14T16:09:05.394Z,10.20
2019-05-14T16:11:31.660Z,10.00
2019-05-14T16:13:58.026Z,10.00
2019-05-14T16:16:24.365Z,9.80
2019-05-14T16:18:50.600Z,9.80
2019-05-14T16:21:18.292Z,9.80
2019-05-14T16:23:44.705Z,9.50
2019-05-14T16:26:10.951Z,9.30
2019-05-14T16:28:39.602Z,9.20
2019-05-14T16:31:05.390Z,9.10
2019-05-14T16:33:31.658Z,9.00
2019-05-14T16:35:58.152Z,8.90
2019-05-14T16:38:24.432Z,8.80
2019-05-14T16:40:50.760Z,8.80
2019-05-14T16:43:39.506Z,8.70
2019-05-14T16:46:05.306Z,8.80
2019-05-14T16:48:33.236Z,8.80
2019-05-14T16:50:59.644Z,8.90
2019-05-14T16:53:25.897Z,9.00
2019-05-14T16:55:52.139Z,9.10
2019-05-14T16:58:19.539Z,9.10
2019-05-14T17:00:46.161Z,9.20
2019-05-14T17:03:12.382Z,9.20
2019-05-14T17:05:38.678Z,9.30
2019-05-14T17:08:04.922Z,9.30
2019-05-14T17:10:31.166Z,9.40
2019-05-14T17:13:01.627Z,9.40
2019-05-14T17:15:25.589Z,9.40
2019-05-14T17:17:51.843Z,9.40
2019-05-14T17:20:19.407Z,9.40
2019-05-14T17:22:48.757Z,9.40
2019-05-14T17:25:26.341Z,9.40
2019-05-14T17:27:43.107Z,9.40
2019-05-14T17:30:09.937Z,9.50
2019-05-14T17:32:38.979Z,9.50
2019-05-14T17:35:05.743Z,9.50
2019-05-14T17:37:32.022Z,9.50
2019-05-14T17:39:58.308Z,9.50
2019-05-14T17:42:24.549Z,9.50
2019-05-14T17:44:52.659Z,9.50
2019-05-14T17:47:20.617Z,9.50
2019-05-14T17:49:48.518Z,9.50
2019-05-14T17:52:15.054Z,9.40
2019-05-14T17:54:42.197Z,9.30
2019-05-14T17:57:08.606Z,9.30
2019-05-14T17:59:34.832Z,9.30
2019-05-14T18:02:01.115Z,9.30
2019-05-14T18:04:28.379Z,9.30
2019-05-14T18:06:54.837Z,9.30
2019-05-14T18:09:21.045Z,9.20
2019-05-14T18:11:49.078Z,9.20
2019-05-14T18:14:15.849Z,9.20
2019-05-14T18:16:42.599Z,9.20
2019-05-14T18:19:08.911Z,9.20
2019-05-14T18:21:35.220Z,9.10
2019-05-14T18:24:01.974Z,9.00
2019-05-14T18:26:29.228Z,9.10
2019-05-14T18:28:57.972Z,9.00
2019-05-14T18:31:24.610Z,9.00
2019-05-14T18:33:50.862Z,9.00
2019-05-14T18:36:19.647Z,8.90
2019-05-14T18:38:49.111Z,8.90
2019-05-14T18:41:18.870Z,8.90
2019-05-14T18:43:46.423Z,8.80
2019-05-14T18:46:14.613Z,8.80
2019-05-14T18:48:41.860Z,8.80
2019-05-14T18:51:09.291Z,8.80
2019-05-14T18:53:38.464Z,8.80
2019-05-14T18:56:19.562Z,8.70
2019-05-14T18:58:38.181Z,8.70
2019-05-14T19:01:07.637Z,8.70
2019-05-14T19:03:39.588Z,8.70
2019-05-14T19:06:07.352Z,8.60
2019-05-14T19:08:35.240Z,8.60
2019-05-14T19:11:02.973Z,8.60
2019-05-14T19:13:30.927Z,8.60
2019-05-14T19:15:59.281Z,8.60
2019-05-14T19:18:28.670Z,8.60
2019-05-14T19:20:59.184Z,8.60
2019-05-14T19:23:29.252Z,8.60
2019-05-14T19:25:59.134Z,8.50
2019-05-14T19:28:28.249Z,8.50
2019-05-14T19:30:56.419Z,8.50
2019-05-14T19:33:24.275Z,8.50
2019-05-14T19:35:52.520Z,8.40
2019-05-14T19:38:20.499Z,8.40
2019-05-14T19:40:48.677Z,8.40
2019-05-14T19:43:18.932Z,8.30
2019-05-14T19:45:48.495Z,8.30
2019-05-14T19:48:16.083Z,8.20
2019-05-14T19:50:44.043Z,8.20
2019-05-14T19:53:11.950Z,8.20
2019-05-14T19:55:40.285Z,8.20
2019-05-14T19:58:08.316Z,8.10
2019-05-14T20:00:38.353Z,8.10
2019-05-14T20:03:08.622Z,8.00
2019-05-14T20:05:35.965Z,8.00
2019-05-14T20:08:03.645Z,8.00
2019-05-14T20:10:45.945Z,7.90
2019-05-14T20:13:13.805Z,7.80
2019-05-14T20:15:41.642Z,7.80
2019-05-14T20:18:09.039Z,7.70
2019-05-14T20:20:38.915Z,7.80
2019-05-14T20:23:06.257Z,7.80
2019-05-14T20:25:33.440Z,7.80
2019-05-14T20:28:02.532Z,7.70
2019-05-14T20:30:29.780Z,7.80
2019-05-14T20:32:59.161Z,7.70
2019-05-14T20:35:31.632Z,7.70
2019-05-14T20:37:53.853Z,7.70
2019-05-14T20:40:20.411Z,7.70
2019-05-14T20:42:49.123Z,7.70
2019-05-14T20:45:18.978Z,7.60
2019-05-14T20:47:44.648Z,7.60
2019-05-14T20:50:11.594Z,7.60
2019-05-14T20:52:37.852Z,7.60
2019-05-14T20:55:05.988Z,7.60
2019-05-14T20:58:12.499Z,7.60
2019-05-14T21:00:41.432Z,7.60
2019-05-14T21:03:08.977Z,7.60
2019-05-14T21:05:35.315Z,7.60
2019-05-14T21:08:01.565Z,7.50
2019-05-14T21:10:29.165Z,7.50
2019-05-14T21:12:57.897Z,7.50
2019-05-14T21:15:23.849Z,7.50
2019-05-14T21:17:50.821Z,7.50
2019-05-14T21:20:18.448Z,7.50
2019-05-14T21:22:44.845Z,7.50
2019-05-14T21:25:12.740Z,7.50
2019-05-14T21:27:48.056Z,7.40
2019-05-14T21:30:09.294Z,7.40
2019-05-14T21:32:35.726Z,7.40
2019-05-14T21:35:03.963Z,7.40
2019-05-14T21:37:30.332Z,7.40
2019-05-14T21:39:58.295Z,7.30
2019-05-14T21:42:24.596Z,7.30
2019-05-14T21:44:51.556Z,7.30
2019-05-14T21:47:18.029Z,7.30
2019-05-14T21:49:44.269Z,7.20
2019-05-14T21:52:10.519Z,7.20
2019-05-14T21:54:39.301Z,7.20
2019-05-14T21:57:04.959Z,7.20
2019-05-14T21:59:31.210Z,7.10
2019-05-14T22:01:58.960Z,7.00
2019-05-14T22:04:25.370Z,7.00
2019-05-14T22:06:51.658Z,7.00
2019-05-14T22:09:17.877Z,7.00
2019-05-14T22:11:44.158Z,7.00
2019-05-14T22:14:11.197Z,7.00
2019-05-14T22:16:39.567Z,7.00
2019-05-14T22:19:08.317Z,7.00
2019-05-14T22:21:34.231Z,7.00
2019-05-14T22:24:00.661Z,7.00
2019-05-14T22:26:28.143Z,7.00
2019-05-14T22:28:54.569Z,7.00
2019-05-14T22:31:20.810Z,7.00
2019-05-14T22:33:47.035Z,7.00
2019-05-14T22:36:13.283Z,7.10
2019-05-14T22:38:39.810Z,7.10
2019-05-14T22:41:08.262Z,7.10
2019-05-14T22:43:34.729Z,7.10
2019-05-14T22:46:01.016Z,7.00
2019-05-14T22:48:27.233Z,7.00
2019-05-14T22:50:53.454Z,7.00
2019-05-14T22:53:19.697Z,7.00
2019-05-14T22:55:45.910Z,7.00
2019-05-14T22:58:24.738Z,7.00
2019-05-14T23:00:47.088Z,6.90
2019-05-14T23:03:08.505Z,6.90
2019-05-14T23:05:34.745Z,7.00
2019-05-14T23:08:00.977Z,6.90
2019-05-14T23:10:27.218Z,6.90
2019-05-14T23:12:53.430Z,6.90
2019-05-14T23:15:19.699Z,6.90
2019-05-14T23:17:47.958Z,6.80
2019-05-14T23:20:14.420Z,6.80
2019-05-14T23:22:40.646Z,6.80
2019-05-14T23:25:08.933Z,6.80
2019-05-14T23:27:35.449Z,6.80
2019-05-14T23:30:02.876Z,6.80
2019-05-14T23:32:29.128Z,6.80
2019-05-14T23:34:55.643Z,6.80
2019-05-14T23:37:21.934Z,6.80
2019-05-14T23:39:49.090Z,6.80
2019-05-14T23:42:15.592Z,6.80
2019-05-14T23:44:41.816Z,6.90
2019-05-14T23:47:08.366Z,6.80
2019-05-14T23:49:35.072Z,6.90
2019-05-14T23:52:01.528Z,6.80
2019-05-14T23:54:29.114Z,6.80
2019-05-14T23:56:58.270Z,6.80
2019-05-14T23:59:23.793Z,6.70
